sensor_id;sensor_type;location;lat;lon;timestamp;P1;durP1;ratioP1;P2;durP2;ratioP2
53881;SDS011;39794;55.782;37.452;2023-07-08T00:00:46;13.10;;;10.07;;
53881;SDS011;39794;55.782;37.452;2023-07-08T00:03:17;12.43;;;9.43;;
53881;SDS011;39794;55.782;37.452;2023-07-08T00:05:47;11.43;;;9.02;;
53881;SDS011;39794;55.782;37.452;2023-07-08T00:08:17;12.32;;;9.82;;
53881;SDS011;39794;55.782;37.452;2023-07-08T00:10:46;14.23;;;10.18;;
53881;SDS011;39794;55.782;37.452;2023-07-08T00:13:14;13.35;;;9.38;;
53881;SDS011;39794;55.782;37.452;2023-07-08T00:15:46;14.70;;;9.82;;
53881;SDS011;39794;55.782;37.452;2023-07-08T00:18:15;12.93;;;9.93;;
53881;SDS011;39794;55.782;37.452;2023-07-08T00:20:46;12.30;;;10.02;;
53881;SDS011;39794;55.782;37.452;2023-07-08T00:23:15;13.75;;;10.10;;
53881;SDS011;39794;55.782;37.452;2023-07-08T00:25:49;13.90;;;9.77;;
53881;SDS011;39794;55.782;37.452;2023-07-08T00:28:19;13.13;;;9.45;;
53881;SDS011;39794;55.782;37.452;2023-07-08T00:30:49;12.35;;;10.10;;
53881;SDS011;39794;55.782;37.452;2023-07-08T00:33:19;10.48;;;9.13;;
53881;SDS011;39794;55.782;37.452;2023-07-08T00:35:50;15.07;;;10.20;;
53881;SDS011;39794;55.782;37.452;2023-07-08T00:38:19;13.57;;;9.68;;
53881;SDS011;39794;55.782;37.452;2023-07-08T00:40:58;14.40;;;10.93;;
53881;SDS011;39794;55.782;37.452;2023-07-08T00:43:30;15.90;;;10.35;;
53881;SDS011;39794;55.782;37.452;2023-07-08T00:46:09;12.40;;;9.27;;
53881;SDS011;39794;55.782;37.452;2023-07-08T00:48:46;13.43;;;9.80;;
53881;SDS011;39794;55.782;37.452;2023-07-08T00:51:18;12.07;;;9.32;;
53881;SDS011;39794;55.782;37.452;2023-07-08T00:53:49;13.45;;;10.05;;
53881;SDS011;39794;55.782;37.452;2023-07-08T00:56:18;12.45;;;9.40;;
53881;SDS011;39794;55.782;37.452;2023-07-08T00:58:52;13.98;;;9.95;;
53881;SDS011;39794;55.782;37.452;2023-07-08T01:01:23;12.95;;;10.20;;
53881;SDS011;39794;55.782;37.452;2023-07-08T01:03:55;12.70;;;9.70;;
53881;SDS011;39794;55.782;37.452;2023-07-08T01:06:29;12.40;;;9.65;;
53881;SDS011;39794;55.782;37.452;2023-07-08T01:09:01;11.95;;;9.27;;
53881;SDS011;39794;55.782;37.452;2023-07-08T01:11:32;15.38;;;9.95;;
53881;SDS011;39794;55.782;37.452;2023-07-08T01:14:05;14.63;;;9.77;;
53881;SDS011;39794;55.782;37.452;2023-07-08T01:16:35;12.77;;;9.97;;
53881;SDS011;39794;55.782;37.452;2023-07-08T01:19:06;11.88;;;9.52;;
53881;SDS011;39794;55.782;37.452;2023-07-08T01:21:37;12.95;;;9.38;;
53881;SDS011;39794;55.782;37.452;2023-07-08T01:24:10;13.13;;;9.63;;
53881;SDS011;39794;55.782;37.452;2023-07-08T01:26:42;11.82;;;9.25;;
53881;SDS011;39794;55.782;37.452;2023-07-08T01:29:16;11.63;;;9.32;;
53881;SDS011;39794;55.782;37.452;2023-07-08T01:31:48;14.05;;;10.40;;
53881;SDS011;39794;55.782;37.452;2023-07-08T01:34:23;15.15;;;10.00;;
53881;SDS011;39794;55.782;37.452;2023-07-08T01:36:55;15.98;;;11.45;;
53881;SDS011;39794;55.782;37.452;2023-07-08T01:39:30;14.20;;;11.20;;
53881;SDS011;39794;55.782;37.452;2023-07-08T01:42:00;16.27;;;11.35;;
53881;SDS011;39794;55.782;37.452;2023-07-08T01:44:35;14.98;;;10.82;;
53881;SDS011;39794;55.782;37.452;2023-07-08T01:47:09;15.15;;;11.82;;
53881;SDS011;39794;55.782;37.452;2023-07-08T01:49:48;15.85;;;11.20;;
53881;SDS011;39794;55.782;37.452;2023-07-08T01:52:20;14.80;;;11.35;;
53881;SDS011;39794;55.782;37.452;2023-07-08T01:54:55;16.38;;;11.73;;
53881;SDS011;39794;55.782;37.452;2023-07-08T01:57:24;16.02;;;11.48;;
53881;SDS011;39794;55.782;37.452;2023-07-08T01:59:53;16.60;;;12.15;;
53881;SDS011;39794;55.782;37.452;2023-07-08T02:02:22;15.13;;;11.43;;
53881;SDS011;39794;55.782;37.452;2023-07-08T02:04:51;15.90;;;11.95;;
53881;SDS011;39794;55.782;37.452;2023-07-08T02:07:23;14.38;;;10.30;;
53881;SDS011;39794;55.782;37.452;2023-07-08T02:09:51;19.30;;;12.35;;
53881;SDS011;39794;55.782;37.452;2023-07-08T02:12:21;17.48;;;12.13;;
53881;SDS011;39794;55.782;37.452;2023-07-08T02:14:50;16.40;;;12.05;;
53881;SDS011;39794;55.782;37.452;2023-07-08T02:17:19;15.30;;;11.02;;
53881;SDS011;39794;55.782;37.452;2023-07-08T02:20:08;15.60;;;10.52;;
53881;SDS011;39794;55.782;37.452;2023-07-08T02:22:37;15.43;;;11.40;;
53881;SDS011;39794;55.782;37.452;2023-07-08T02:25:06;15.23;;;12.00;;
53881;SDS011;39794;55.782;37.452;2023-07-08T02:27:37;14.73;;;10.32;;
53881;SDS011;39794;55.782;37.452;2023-07-08T02:30:06;15.00;;;10.40;;
53881;SDS011;39794;55.782;37.452;2023-07-08T02:32:37;15.35;;;10.50;;
53881;SDS011;39794;55.782;37.452;2023-07-08T02:35:08;13.73;;;10.43;;
53881;SDS011;39794;55.782;37.452;2023-07-08T02:37:42;18.67;;;10.15;;
53881;SDS011;39794;55.782;37.452;2023-07-08T02:40:12;17.67;;;10.93;;
53881;SDS011;39794;55.782;37.452;2023-07-08T02:42:42;15.55;;;10.82;;
53881;SDS011;39794;55.782;37.452;2023-07-08T02:45:11;12.93;;;9.88;;
53881;SDS011;39794;55.782;37.452;2023-07-08T02:47:40;15.77;;;10.43;;
53881;SDS011;39794;55.782;37.452;2023-07-08T02:50:10;14.27;;;9.75;;
53881;SDS011;39794;55.782;37.452;2023-07-08T02:52:39;13.85;;;9.57;;
53881;SDS011;39794;55.782;37.452;2023-07-08T02:55:08;14.13;;;10.73;;
53881;SDS011;39794;55.782;37.452;2023-07-08T02:57:37;15.15;;;10.88;;
53881;SDS011;39794;55.782;37.452;2023-07-08T03:00:07;13.45;;;10.45;;
53881;SDS011;39794;55.782;37.452;2023-07-08T03:02:36;15.93;;;10.88;;
53881;SDS011;39794;55.782;37.452;2023-07-08T03:05:05;15.02;;;11.23;;
53881;SDS011;39794;55.782;37.452;2023-07-08T03:07:34;14.55;;;11.65;;
53881;SDS011;39794;55.782;37.452;2023-07-08T03:10:03;13.73;;;10.82;;
53881;SDS011;39794;55.782;37.452;2023-07-08T03:12:33;15.27;;;10.98;;
53881;SDS011;39794;55.782;37.452;2023-07-08T03:15:02;16.05;;;10.82;;
53881;SDS011;39794;55.782;37.452;2023-07-08T03:17:33;14.77;;;10.48;;
53881;SDS011;39794;55.782;37.452;2023-07-08T03:20:02;14.25;;;10.57;;
53881;SDS011;39794;55.782;37.452;2023-07-08T03:22:32;14.27;;;10.65;;
53881;SDS011;39794;55.782;37.452;2023-07-08T03:25:01;13.98;;;10.88;;
53881;SDS011;39794;55.782;37.452;2023-07-08T03:27:31;11.50;;;10.10;;
53881;SDS011;39794;55.782;37.452;2023-07-08T03:30:00;13.20;;;9.10;;
53881;SDS011;39794;55.782;37.452;2023-07-08T03:32:35;13.02;;;9.52;;
53881;SDS011;39794;55.782;37.452;2023-07-08T03:35:04;13.73;;;10.10;;
53881;SDS011;39794;55.782;37.452;2023-07-08T03:37:35;11.82;;;9.10;;
53881;SDS011;39794;55.782;37.452;2023-07-08T03:40:07;14.90;;;9.93;;
53881;SDS011;39794;55.782;37.452;2023-07-08T03:42:38;12.45;;;9.57;;
53881;SDS011;39794;55.782;37.452;2023-07-08T03:45:07;12.32;;;9.88;;
53881;SDS011;39794;55.782;37.452;2023-07-08T03:47:37;14.85;;;10.38;;
53881;SDS011;39794;55.782;37.452;2023-07-08T03:50:09;13.27;;;9.73;;
53881;SDS011;39794;55.782;37.452;2023-07-08T03:52:43;14.02;;;10.10;;
53881;SDS011;39794;55.782;37.452;2023-07-08T03:55:12;11.95;;;9.07;;
53881;SDS011;39794;55.782;37.452;2023-07-08T03:57:42;11.38;;;9.20;;
53881;SDS011;39794;55.782;37.452;2023-07-08T04:00:11;14.07;;;9.68;;
53881;SDS011;39794;55.782;37.452;2023-07-08T04:02:42;13.27;;;9.48;;
53881;SDS011;39794;55.782;37.452;2023-07-08T04:05:19;12.18;;;9.32;;
53881;SDS011;39794;55.782;37.452;2023-07-08T04:07:49;12.20;;;9.30;;
53881;SDS011;39794;55.782;37.452;2023-07-08T04:10:18;14.60;;;9.18;;
53881;SDS011;39794;55.782;37.452;2023-07-08T04:12:46;10.98;;;8.20;;
53881;SDS011;39794;55.782;37.452;2023-07-08T04:15:15;13.27;;;9.15;;
53881;SDS011;39794;55.782;37.452;2023-07-08T04:17:46;12.35;;;9.13;;
53881;SDS011;39794;55.782;37.452;2023-07-08T04:20:17;12.55;;;8.70;;
53881;SDS011;39794;55.782;37.452;2023-07-08T04:22:47;14.40;;;9.15;;
53881;SDS011;39794;55.782;37.452;2023-07-08T04:25:15;12.80;;;9.13;;
53881;SDS011;39794;55.782;37.452;2023-07-08T04:27:44;13.35;;;8.70;;
53881;SDS011;39794;55.782;37.452;2023-07-08T04:30:17;11.02;;;8.32;;
53881;SDS011;39794;55.782;37.452;2023-07-08T04:32:51;15.15;;;8.55;;
53881;SDS011;39794;55.782;37.452;2023-07-08T04:35:20;11.75;;;8.95;;
53881;SDS011;39794;55.782;37.452;2023-07-08T04:37:49;13.45;;;8.95;;
53881;SDS011;39794;55.782;37.452;2023-07-08T04:40:19;11.60;;;8.43;;
53881;SDS011;39794;55.782;37.452;2023-07-08T04:42:49;12.00;;;8.73;;
53881;SDS011;39794;55.782;37.452;2023-07-08T04:45:19;12.25;;;8.90;;
53881;SDS011;39794;55.782;37.452;2023-07-08T04:47:48;12.90;;;8.60;;
53881;SDS011;39794;55.782;37.452;2023-07-08T04:50:21;14.98;;;8.35;;
53881;SDS011;39794;55.782;37.452;2023-07-08T04:52:50;10.25;;;7.65;;
53881;SDS011;39794;55.782;37.452;2023-07-08T04:55:19;12.75;;;8.57;;
53881;SDS011;39794;55.782;37.452;2023-07-08T04:57:47;12.90;;;8.90;;
53881;SDS011;39794;55.782;37.452;2023-07-08T05:00:16;12.50;;;8.52;;
53881;SDS011;39794;55.782;37.452;2023-07-08T05:02:46;11.18;;;8.40;;
53881;SDS011;39794;55.782;37.452;2023-07-08T05:05:15;12.50;;;8.57;;
53881;SDS011;39794;55.782;37.452;2023-07-08T05:07:45;10.75;;;7.10;;
53881;SDS011;39794;55.782;37.452;2023-07-08T05:10:16;10.43;;;7.75;;
53881;SDS011;39794;55.782;37.452;2023-07-08T05:12:46;11.50;;;8.35;;
53881;SDS011;39794;55.782;37.452;2023-07-08T05:15:15;13.55;;;8.55;;
53881;SDS011;39794;55.782;37.452;2023-07-08T05:17:47;13.25;;;8.18;;
53881;SDS011;39794;55.782;37.452;2023-07-08T05:20:18;11.45;;;7.85;;
53881;SDS011;39794;55.782;37.452;2023-07-08T05:22:51;10.75;;;7.38;;
53881;SDS011;39794;55.782;37.452;2023-07-08T05:25:20;12.13;;;7.90;;
53881;SDS011;39794;55.782;37.452;2023-07-08T05:27:49;10.57;;;7.40;;
53881;SDS011;39794;55.782;37.452;2023-07-08T05:30:19;13.55;;;9.05;;
53881;SDS011;39794;55.782;37.452;2023-07-08T05:32:47;10.75;;;8.18;;
53881;SDS011;39794;55.782;37.452;2023-07-08T05:35:16;11.70;;;7.78;;
53881;SDS011;39794;55.782;37.452;2023-07-08T05:37:45;12.77;;;8.48;;
53881;SDS011;39794;55.782;37.452;2023-07-08T05:40:16;8.75;;;7.25;;
53881;SDS011;39794;55.782;37.452;2023-07-08T05:42:47;10.30;;;7.40;;
53881;SDS011;39794;55.782;37.452;2023-07-08T05:45:15;11.68;;;8.15;;
53881;SDS011;39794;55.782;37.452;2023-07-08T05:47:44;11.57;;;8.02;;
53881;SDS011;39794;55.782;37.452;2023-07-08T05:50:13;12.10;;;7.93;;
53881;SDS011;39794;55.782;37.452;2023-07-08T05:52:41;12.45;;;7.72;;
53881;SDS011;39794;55.782;37.452;2023-07-08T05:55:10;12.98;;;8.52;;
53881;SDS011;39794;55.782;37.452;2023-07-08T05:57:40;13.30;;;8.32;;
53881;SDS011;39794;55.782;37.452;2023-07-08T06:00:10;12.75;;;7.85;;
53881;SDS011;39794;55.782;37.452;2023-07-08T06:02:47;9.77;;;7.47;;
53881;SDS011;39794;55.782;37.452;2023-07-08T06:05:15;10.48;;;7.60;;
53881;SDS011;39794;55.782;37.452;2023-07-08T06:07:44;11.07;;;7.32;;
53881;SDS011;39794;55.782;37.452;2023-07-08T06:10:13;13.13;;;8.25;;
53881;SDS011;39794;55.782;37.452;2023-07-08T06:12:43;11.38;;;7.88;;
53881;SDS011;39794;55.782;37.452;2023-07-08T06:15:11;10.80;;;7.13;;
53881;SDS011;39794;55.782;37.452;2023-07-08T06:17:40;12.52;;;7.47;;
53881;SDS011;39794;55.782;37.452;2023-07-08T06:20:09;12.75;;;8.10;;
53881;SDS011;39794;55.782;37.452;2023-07-08T06:22:38;9.73;;;7.20;;
53881;SDS011;39794;55.782;37.452;2023-07-08T06:25:13;12.88;;;7.38;;
53881;SDS011;39794;55.782;37.452;2023-07-08T06:27:44;10.23;;;6.88;;
53881;SDS011;39794;55.782;37.452;2023-07-08T06:30:13;12.23;;;7.72;;
53881;SDS011;39794;55.782;37.452;2023-07-08T06:32:41;12.90;;;7.75;;
53881;SDS011;39794;55.782;37.452;2023-07-08T06:35:10;10.27;;;7.38;;
53881;SDS011;39794;55.782;37.452;2023-07-08T06:37:39;8.90;;;7.38;;
53881;SDS011;39794;55.782;37.452;2023-07-08T06:40:08;8.45;;;6.68;;
53881;SDS011;39794;55.782;37.452;2023-07-08T06:42:37;10.45;;;7.18;;
53881;SDS011;39794;55.782;37.452;2023-07-08T06:45:18;11.43;;;7.30;;
53881;SDS011;39794;55.782;37.452;2023-07-08T06:47:48;10.30;;;6.85;;
53881;SDS011;39794;55.782;37.452;2023-07-08T06:50:17;8.75;;;6.90;;
53881;SDS011;39794;55.782;37.452;2023-07-08T06:52:45;14.38;;;6.35;;
53881;SDS011;39794;55.782;37.452;2023-07-08T06:55:14;9.07;;;7.03;;
53881;SDS011;39794;55.782;37.452;2023-07-08T06:57:44;11.60;;;6.97;;
53881;SDS011;39794;55.782;37.452;2023-07-08T07:00:12;10.48;;;6.95;;
53881;SDS011;39794;55.782;37.452;2023-07-08T07:02:45;9.07;;;7.45;;
53881;SDS011;39794;55.782;37.452;2023-07-08T07:05:14;9.40;;;6.60;;
53881;SDS011;39794;55.782;37.452;2023-07-08T07:07:43;8.95;;;7.47;;
53881;SDS011;39794;55.782;37.452;2023-07-08T07:10:11;10.25;;;7.30;;
53881;SDS011;39794;55.782;37.452;2023-07-08T07:12:40;9.18;;;6.55;;
53881;SDS011;39794;55.782;37.452;2023-07-08T07:15:09;11.77;;;6.70;;
53881;SDS011;39794;55.782;37.452;2023-07-08T07:17:38;8.57;;;6.45;;
53881;SDS011;39794;55.782;37.452;2023-07-08T07:20:09;9.45;;;6.63;;
53881;SDS011;39794;55.782;37.452;2023-07-08T07:22:38;8.50;;;6.25;;
53881;SDS011;39794;55.782;37.452;2023-07-08T07:25:07;8.35;;;6.35;;
53881;SDS011;39794;55.782;37.452;2023-07-08T07:27:36;9.93;;;6.50;;
53881;SDS011;39794;55.782;37.452;2023-07-08T07:30:06;11.25;;;6.63;;
53881;SDS011;39794;55.782;37.452;2023-07-08T07:32:39;9.10;;;6.55;;
53881;SDS011;39794;55.782;37.452;2023-07-08T07:35:10;10.82;;;6.57;;
53881;SDS011;39794;55.782;37.452;2023-07-08T07:37:41;9.70;;;6.22;;
53881;SDS011;39794;55.782;37.452;2023-07-08T07:40:11;10.18;;;7.15;;
53881;SDS011;39794;55.782;37.452;2023-07-08T07:42:43;9.27;;;6.15;;
53881;SDS011;39794;55.782;37.452;2023-07-08T07:45:13;8.45;;;6.70;;
53881;SDS011;39794;55.782;37.452;2023-07-08T07:47:45;8.23;;;6.53;;
53881;SDS011;39794;55.782;37.452;2023-07-08T07:50:15;9.80;;;6.40;;
53881;SDS011;39794;55.782;37.452;2023-07-08T07:52:44;9.95;;;6.72;;
53881;SDS011;39794;55.782;37.452;2023-07-08T07:55:13;8.80;;;6.47;;
53881;SDS011;39794;55.782;37.452;2023-07-08T07:57:43;10.15;;;6.82;;
53881;SDS011;39794;55.782;37.452;2023-07-08T08:00:13;8.35;;;6.78;;
53881;SDS011;39794;55.782;37.452;2023-07-08T08:02:44;9.27;;;6.50;;
53881;SDS011;39794;55.782;37.452;2023-07-08T08:05:14;10.75;;;6.95;;
53881;SDS011;39794;55.782;37.452;2023-07-08T08:07:44;11.98;;;6.70;;
53881;SDS011;39794;55.782;37.452;2023-07-08T08:10:15;9.38;;;7.30;;
53881;SDS011;39794;55.782;37.452;2023-07-08T08:12:44;9.75;;;7.38;;
53881;SDS011;39794;55.782;37.452;2023-07-08T08:15:20;11.57;;;6.95;;
53881;SDS011;39794;55.782;37.452;2023-07-08T08:17:49;11.32;;;7.28;;
53881;SDS011;39794;55.782;37.452;2023-07-08T08:20:22;9.38;;;6.75;;
53881;SDS011;39794;55.782;37.452;2023-07-08T08:22:52;9.40;;;5.68;;
53881;SDS011;39794;55.782;37.452;2023-07-08T08:25:21;9.00;;;6.32;;
53881;SDS011;39794;55.782;37.452;2023-07-08T08:27:51;9.20;;;7.70;;
53881;SDS011;39794;55.782;37.452;2023-07-08T08:30:20;11.43;;;7.07;;
53881;SDS011;39794;55.782;37.452;2023-07-08T08:32:48;10.85;;;8.30;;
53881;SDS011;39794;55.782;37.452;2023-07-08T08:35:17;11.30;;;8.57;;
53881;SDS011;39794;55.782;37.452;2023-07-08T08:37:47;10.20;;;7.70;;
53881;SDS011;39794;55.782;37.452;2023-07-08T08:40:17;8.95;;;5.82;;
53881;SDS011;39794;55.782;37.452;2023-07-08T08:42:51;8.77;;;6.50;;
53881;SDS011;39794;55.782;37.452;2023-07-08T08:45:21;8.23;;;6.55;;
53881;SDS011;39794;55.782;37.452;2023-07-08T08:47:53;11.90;;;6.80;;
53881;SDS011;39794;55.782;37.452;2023-07-08T08:50:29;7.65;;;6.32;;
53881;SDS011;39794;55.782;37.452;2023-07-08T08:53:01;8.45;;;5.95;;
53881;SDS011;39794;55.782;37.452;2023-07-08T08:55:32;11.63;;;6.75;;
53881;SDS011;39794;55.782;37.452;2023-07-08T08:58:06;7.97;;;5.88;;
53881;SDS011;39794;55.782;37.452;2023-07-08T09:00:45;6.82;;;5.68;;
53881;SDS011;39794;55.782;37.452;2023-07-08T09:03:27;14.52;;;6.05;;
53881;SDS011;39794;55.782;37.452;2023-07-08T09:06:07;7.75;;;5.90;;
53881;SDS011;39794;55.782;37.452;2023-07-08T09:08:39;7.30;;;6.10;;
53881;SDS011;39794;55.782;37.452;2023-07-08T09:14:03;8.77;;;5.60;;
53881;SDS011;39794;55.782;37.452;2023-07-08T09:16:38;9.27;;;6.18;;
53881;SDS011;39794;55.782;37.452;2023-07-08T09:19:11;8.90;;;5.75;;
53881;SDS011;39794;55.782;37.452;2023-07-08T09:21:43;8.45;;;5.50;;
53881;SDS011;39794;55.782;37.452;2023-07-08T09:24:18;7.88;;;5.95;;
53881;SDS011;39794;55.782;37.452;2023-07-08T09:26:49;9.18;;;5.57;;
53881;SDS011;39794;55.782;37.452;2023-07-08T09:29:20;7.43;;;5.50;;
53881;SDS011;39794;55.782;37.452;2023-07-08T09:31:50;7.60;;;5.63;;
53881;SDS011;39794;55.782;37.452;2023-07-08T09:34:20;9.02;;;5.43;;
53881;SDS011;39794;55.782;37.452;2023-07-08T09:36:51;9.55;;;5.30;;
53881;SDS011;39794;55.782;37.452;2023-07-08T09:39:23;10.70;;;5.55;;
53881;SDS011;39794;55.782;37.452;2023-07-08T09:41:51;7.65;;;5.00;;
53881;SDS011;39794;55.782;37.452;2023-07-08T09:44:22;8.10;;;5.75;;
53881;SDS011;39794;55.782;37.452;2023-07-08T09:46:54;6.65;;;4.88;;
53881;SDS011;39794;55.782;37.452;2023-07-08T09:49:26;6.68;;;4.55;;
53881;SDS011;39794;55.782;37.452;2023-07-08T09:51:57;6.13;;;4.05;;
53881;SDS011;39794;55.782;37.452;2023-07-08T09:54:30;8.05;;;4.80;;
53881;SDS011;39794;55.782;37.452;2023-07-08T09:57:00;8.15;;;4.25;;
53881;SDS011;39794;55.782;37.452;2023-07-08T09:59:32;4.35;;;3.92;;
53881;SDS011;39794;55.782;37.452;2023-07-08T10:02:15;4.63;;;4.20;;
53881;SDS011;39794;55.782;37.452;2023-07-08T10:04:52;4.90;;;3.80;;
53881;SDS011;39794;55.782;37.452;2023-07-08T10:07:22;5.85;;;3.67;;
53881;SDS011;39794;55.782;37.452;2023-07-08T10:09:53;4.68;;;3.38;;
53881;SDS011;39794;55.782;37.452;2023-07-08T10:12:24;4.18;;;3.40;;
53881;SDS011;39794;55.782;37.452;2023-07-08T10:14:54;4.50;;;3.72;;
53881;SDS011;39794;55.782;37.452;2023-07-08T10:17:30;5.72;;;3.35;;
53881;SDS011;39794;55.782;37.452;2023-07-08T10:19:59;3.55;;;2.97;;
53881;SDS011;39794;55.782;37.452;2023-07-08T10:22:34;5.80;;;2.80;;
53881;SDS011;39794;55.782;37.452;2023-07-08T10:25:10;4.30;;;3.22;;
53881;SDS011;39794;55.782;37.452;2023-07-08T10:27:46;3.22;;;2.75;;
53881;SDS011;39794;55.782;37.452;2023-07-08T10:30:21;3.53;;;2.72;;
53881;SDS011;39794;55.782;37.452;2023-07-08T10:32:55;6.22;;;3.53;;
53881;SDS011;39794;55.782;37.452;2023-07-08T10:35:42;4.32;;;3.00;;
53881;SDS011;39794;55.782;37.452;2023-07-08T10:38:23;4.60;;;2.90;;
53881;SDS011;39794;55.782;37.452;2023-07-08T10:41:00;3.90;;;2.83;;
53881;SDS011;39794;55.782;37.452;2023-07-08T10:43:37;6.85;;;3.22;;
53881;SDS011;39794;55.782;37.452;2023-07-08T10:46:16;7.70;;;4.72;;
53881;SDS011;39794;55.782;37.452;2023-07-08T10:49:00;5.95;;;3.53;;
53881;SDS011;39794;55.782;37.452;2023-07-08T10:51:53;3.20;;;2.75;;
53881;SDS011;39794;55.782;37.452;2023-07-08T10:54:40;4.00;;;2.90;;
53881;SDS011;39794;55.782;37.452;2023-07-08T11:00:19;7.07;;;4.07;;
53881;SDS011;39794;55.782;37.452;2023-07-08T11:02:57;5.03;;;3.53;;
53881;SDS011;39794;55.782;37.452;2023-07-08T11:05:36;4.40;;;3.28;;
53881;SDS011;39794;55.782;37.452;2023-07-08T11:08:12;3.90;;;2.88;;
53881;SDS011;39794;55.782;37.452;2023-07-08T11:10:47;5.72;;;2.95;;
53881;SDS011;39794;55.782;37.452;2023-07-08T11:13:38;5.68;;;2.75;;
53881;SDS011;39794;55.782;37.452;2023-07-08T11:16:12;3.40;;;2.63;;
53881;SDS011;39794;55.782;37.452;2023-07-08T11:18:47;3.40;;;2.95;;
53881;SDS011;39794;55.782;37.452;2023-07-08T11:21:19;3.92;;;2.83;;
53881;SDS011;39794;55.782;37.452;2023-07-08T11:23:52;3.40;;;2.63;;
53881;SDS011;39794;55.782;37.452;2023-07-08T11:26:27;4.43;;;3.00;;
53881;SDS011;39794;55.782;37.452;2023-07-08T11:28:59;2.88;;;2.20;;
53881;SDS011;39794;55.782;37.452;2023-07-08T11:31:31;6.43;;;2.80;;
53881;SDS011;39794;55.782;37.452;2023-07-08T11:34:01;3.70;;;2.30;;
53881;SDS011;39794;55.782;37.452;2023-07-08T11:36:30;4.25;;;2.10;;
53881;SDS011;39794;55.782;37.452;2023-07-08T11:38:59;2.63;;;2.13;;
53881;SDS011;39794;55.782;37.452;2023-07-08T11:41:30;5.57;;;2.80;;
53881;SDS011;39794;55.782;37.452;2023-07-08T11:44:02;4.13;;;2.10;;
53881;SDS011;39794;55.782;37.452;2023-07-08T11:46:33;3.15;;;2.10;;
53881;SDS011;39794;55.782;37.452;2023-07-08T11:49:02;2.70;;;2.10;;
53881;SDS011;39794;55.782;37.452;2023-07-08T11:51:34;6.45;;;2.20;;
53881;SDS011;39794;55.782;37.452;2023-07-08T11:54:10;3.63;;;2.65;;
53881;SDS011;39794;55.782;37.452;2023-07-08T11:56:48;3.20;;;2.15;;
53881;SDS011;39794;55.782;37.452;2023-07-08T11:59:20;4.93;;;2.25;;
53881;SDS011;39794;55.782;37.452;2023-07-08T12:01:52;3.72;;;2.53;;
53881;SDS011;39794;55.782;37.452;2023-07-08T12:04:26;4.88;;;2.55;;
53881;SDS011;39794;55.782;37.452;2023-07-08T12:07:06;6.03;;;2.20;;
53881;SDS011;39794;55.782;37.452;2023-07-08T12:09:44;4.38;;;2.60;;
53881;SDS011;39794;55.782;37.452;2023-07-08T12:12:17;2.60;;;2.33;;
53881;SDS011;39794;55.782;37.452;2023-07-08T12:14:51;2.80;;;2.40;;
53881;SDS011;39794;55.782;37.452;2023-07-08T12:17:22;5.65;;;2.78;;
53881;SDS011;39794;55.782;37.452;2023-07-08T12:19:51;2.50;;;2.30;;
53881;SDS011;39794;55.782;37.452;2023-07-08T12:22:20;4.43;;;2.80;;
53881;SDS011;39794;55.782;37.452;2023-07-08T12:24:49;5.72;;;2.47;;
53881;SDS011;39794;55.782;37.452;2023-07-08T12:27:17;5.18;;;2.63;;
53881;SDS011;39794;55.782;37.452;2023-07-08T12:29:49;4.15;;;2.40;;
53881;SDS011;39794;55.782;37.452;2023-07-08T12:32:19;4.40;;;2.53;;
53881;SDS011;39794;55.782;37.452;2023-07-08T12:34:52;4.03;;;2.70;;
53881;SDS011;39794;55.782;37.452;2023-07-08T12:37:21;3.83;;;2.42;;
53881;SDS011;39794;55.782;37.452;2023-07-08T12:39:54;4.53;;;3.08;;
53881;SDS011;39794;55.782;37.452;2023-07-08T12:42:26;5.95;;;2.92;;
53881;SDS011;39794;55.782;37.452;2023-07-08T12:44:56;6.25;;;2.75;;
53881;SDS011;39794;55.782;37.452;2023-07-08T12:47:25;4.95;;;2.75;;
53881;SDS011;39794;55.782;37.452;2023-07-08T12:49:54;4.97;;;3.00;;
53881;SDS011;39794;55.782;37.452;2023-07-08T12:52:23;4.00;;;2.55;;
53881;SDS011;39794;55.782;37.452;2023-07-08T12:54:52;3.63;;;2.47;;
53881;SDS011;39794;55.782;37.452;2023-07-08T12:57:21;3.00;;;2.70;;
53881;SDS011;39794;55.782;37.452;2023-07-08T12:59:49;6.13;;;2.20;;
53881;SDS011;39794;55.782;37.452;2023-07-08T13:02:20;5.28;;;2.33;;
53881;SDS011;39794;55.782;37.452;2023-07-08T13:04:51;3.42;;;2.40;;
53881;SDS011;39794;55.782;37.452;2023-07-08T13:07:25;8.38;;;2.75;;
53881;SDS011;39794;55.782;37.452;2023-07-08T13:09:58;3.47;;;2.25;;
53881;SDS011;39794;55.782;37.452;2023-07-08T13:12:30;3.90;;;2.45;;
53881;SDS011;39794;55.782;37.452;2023-07-08T13:15:02;5.50;;;2.67;;
53881;SDS011;39794;55.782;37.452;2023-07-08T13:17:33;2.90;;;2.50;;
53881;SDS011;39794;55.782;37.452;2023-07-08T13:20:05;2.58;;;2.22;;
53881;SDS011;39794;55.782;37.452;2023-07-08T13:22:36;5.65;;;2.25;;
53881;SDS011;39794;55.782;37.452;2023-07-08T13:25:09;5.50;;;2.58;;
53881;SDS011;39794;55.782;37.452;2023-07-08T13:27:42;4.05;;;1.80;;
53881;SDS011;39794;55.782;37.452;2023-07-08T13:30:25;2.25;;;2.00;;
53881;SDS011;39794;55.782;37.452;2023-07-08T13:32:58;2.85;;;2.00;;
53881;SDS011;39794;55.782;37.452;2023-07-08T13:35:37;5.43;;;2.10;;
53881;SDS011;39794;55.782;37.452;2023-07-08T13:38:11;2.58;;;1.92;;
53881;SDS011;39794;55.782;37.452;2023-07-08T13:40:42;2.20;;;2.00;;
53881;SDS011;39794;55.782;37.452;2023-07-08T13:43:12;4.90;;;1.63;;
53881;SDS011;39794;55.782;37.452;2023-07-08T13:45:43;2.85;;;1.83;;
53881;SDS011;39794;55.782;37.452;2023-07-08T13:48:26;3.10;;;2.00;;
53881;SDS011;39794;55.782;37.452;2023-07-08T13:50:57;3.35;;;2.10;;
53881;SDS011;39794;55.782;37.452;2023-07-08T13:53:33;1.98;;;1.60;;
53881;SDS011;39794;55.782;37.452;2023-07-08T13:56:14;4.50;;;1.98;;
53881;SDS011;39794;55.782;37.452;2023-07-08T13:58:45;2.70;;;1.85;;
53881;SDS011;39794;55.782;37.452;2023-07-08T14:01:17;3.88;;;1.92;;
53881;SDS011;39794;55.782;37.452;2023-07-08T14:03:51;2.25;;;1.85;;
53881;SDS011;39794;55.782;37.452;2023-07-08T14:06:22;3.15;;;1.60;;
53881;SDS011;39794;55.782;37.452;2023-07-08T14:08:53;2.83;;;1.80;;
53881;SDS011;39794;55.782;37.452;2023-07-08T14:11:23;4.43;;;1.90;;
53881;SDS011;39794;55.782;37.452;2023-07-08T14:13:52;2.53;;;1.50;;
53881;SDS011;39794;55.782;37.452;2023-07-08T14:16:23;3.42;;;2.05;;
53881;SDS011;39794;55.782;37.452;2023-07-08T14:18:55;4.68;;;2.03;;
53881;SDS011;39794;55.782;37.452;2023-07-08T14:21:25;2.75;;;2.00;;
53881;SDS011;39794;55.782;37.452;2023-07-08T14:23:54;5.60;;;2.17;;
53881;SDS011;39794;55.782;37.452;2023-07-08T14:26:22;3.30;;;1.60;;
53881;SDS011;39794;55.782;37.452;2023-07-08T14:28:51;5.70;;;2.45;;
53881;SDS011;39794;55.782;37.452;2023-07-08T14:31:21;2.97;;;1.92;;
53881;SDS011;39794;55.782;37.452;2023-07-08T14:33:51;3.97;;;2.10;;
53881;SDS011;39794;55.782;37.452;2023-07-08T14:36:26;3.63;;;1.75;;
53881;SDS011;39794;55.782;37.452;2023-07-08T14:38:55;3.08;;;2.10;;
53881;SDS011;39794;55.782;37.452;2023-07-08T14:41:24;2.72;;;2.03;;
53881;SDS011;39794;55.782;37.452;2023-07-08T14:43:53;4.32;;;2.00;;
53881;SDS011;39794;55.782;37.452;2023-07-08T14:46:22;4.65;;;2.40;;
53881;SDS011;39794;55.782;37.452;2023-07-08T14:48:51;3.40;;;1.80;;
53881;SDS011;39794;55.782;37.452;2023-07-08T14:51:21;3.08;;;2.17;;
53881;SDS011;39794;55.782;37.452;2023-07-08T14:53:50;6.65;;;2.35;;
53881;SDS011;39794;55.782;37.452;2023-07-08T14:56:24;5.07;;;1.95;;